createdAt,value
2023-01-22T00:00:41.065Z,23.05
2023-01-22T00:03:07.681Z,21.75
2023-01-22T00:05:34.355Z,21.17
2023-01-22T00:08:01.045Z,24.30
2023-01-22T00:10:27.755Z,19.80
2023-01-22T00:12:54.340Z,21.27
2023-01-22T00:15:20.919Z,21.75
2023-01-22T00:17:47.996Z,23.98
2023-01-22T00:20:14.642Z,21.00
2023-01-22T00:22:41.334Z,23.65
2023-01-22T00:25:08.870Z,24.52
2023-01-22T00:27:35.587Z,21.58
2023-01-22T00:30:02.444Z,23.80
2023-01-22T00:32:29.043Z,51.08
2023-01-22T00:34:55.593Z,53.60
2023-01-22T00:37:22.227Z,63.80
2023-01-22T00:39:48.813Z,64.30
2023-01-22T00:42:15.668Z,49.92
2023-01-22T00:44:42.354Z,42.30
2023-01-22T00:47:08.940Z,32.75
2023-01-22T00:49:35.557Z,32.08
2023-01-22T00:52:02.261Z,26.00
2023-01-22T00:54:30.041Z,24.30
2023-01-22T00:56:56.991Z,21.75
2023-01-22T00:59:24.270Z,20.33
2023-01-22T01:01:50.959Z,23.30
2023-01-22T01:04:17.766Z,26.80
2023-01-22T01:06:44.635Z,25.27
2023-01-22T01:09:11.229Z,21.25
2023-01-22T01:11:38.133Z,23.95
2023-01-22T01:14:04.882Z,23.98
2023-01-22T01:16:32.476Z,25.73
2023-01-22T01:19:05.081Z,25.13
2023-01-22T01:21:32.240Z,22.63
2023-01-22T01:23:59.868Z,24.02
2023-01-22T01:26:27.521Z,23.60
2023-01-22T01:28:54.246Z,24.10
2023-01-22T01:31:22.937Z,24.60
2023-01-22T01:33:50.082Z,22.58
2023-01-22T01:36:30.712Z,22.67
2023-01-22T01:39:06.337Z,27.15
2023-01-22T01:41:32.993Z,26.48
2023-01-22T01:44:21.335Z,22.38
2023-01-22T01:47:27.261Z,24.20
2023-01-22T01:49:54.451Z,24.48
2023-01-22T01:52:21.237Z,25.25
2023-01-22T01:54:52.420Z,25.60
2023-01-22T01:57:23.607Z,25.98
2023-01-22T01:59:51.871Z,25.58
2023-01-22T02:02:20.644Z,21.65
2023-01-22T02:04:49.427Z,26.25
2023-01-22T02:07:16.251Z,26.73
2023-01-22T02:09:42.990Z,26.30
2023-01-22T02:12:09.897Z,23.73
2023-01-22T02:14:40.312Z,26.90
2023-01-22T02:17:11.775Z,27.70
2023-01-22T02:19:42.355Z,27.88
2023-01-22T02:22:17.607Z,26.50
2023-01-22T02:24:44.299Z,28.60
2023-01-22T02:27:11.176Z,27.65
2023-01-22T02:29:38.148Z,29.58
2023-01-22T02:32:05.333Z,28.13
2023-01-22T02:34:32.510Z,28.77
2023-01-22T02:36:59.194Z,27.75
2023-01-22T02:39:25.770Z,24.80
2023-01-22T02:41:52.816Z,26.92
2023-01-22T02:44:19.654Z,24.58
2023-01-22T02:46:46.607Z,25.58
2023-01-22T02:49:13.247Z,24.13
2023-01-22T02:51:39.812Z,22.40
2023-01-22T02:54:06.356Z,22.35
2023-01-22T02:56:34.360Z,23.02
2023-01-22T02:59:02.464Z,24.23
2023-01-22T03:01:29.350Z,21.33
2023-01-22T03:03:58.505Z,20.55
2023-01-22T03:06:27.714Z,15.32
2023-01-22T03:08:59.818Z,10.90
2023-01-22T03:11:29.476Z,4.57
2023-01-22T03:14:15.819Z,4.22
2023-01-22T03:17:02.060Z,2.75
2023-01-22T03:19:47.896Z,15.40
2023-01-22T03:22:15.821Z,17.25
2023-01-22T03:24:43.529Z,25.83
2023-01-22T03:27:10.499Z,21.08
2023-01-22T03:29:39.951Z,19.63
2023-01-22T03:32:07.022Z,17.42
2023-01-22T03:34:33.984Z,15.05
2023-01-22T03:37:00.967Z,15.90
2023-01-22T03:39:27.735Z,13.70
2023-01-22T03:41:54.411Z,12.40
2023-01-22T03:44:21.162Z,11.75
2023-01-22T03:46:47.828Z,12.40
2023-01-22T03:49:15.148Z,9.05
2023-01-22T03:51:43.035Z,8.35
2023-01-22T03:54:14.272Z,6.55
2023-01-22T03:56:42.081Z,6.72
2023-01-22T03:59:09.896Z,7.72
2023-01-22T04:01:36.832Z,6.07
2023-01-22T04:04:04.153Z,6.43
2023-01-22T04:06:30.777Z,4.47
2023-01-22T04:08:57.381Z,4.88
2023-01-22T04:11:24.377Z,3.80
2023-01-22T04:13:51.053Z,5.53
2023-01-22T04:16:17.724Z,3.65
2023-01-22T04:18:44.726Z,5.35
2023-01-22T04:21:12.051Z,5.25
2023-01-22T04:23:38.756Z,5.20
2023-01-22T04:26:05.522Z,3.10
2023-01-22T04:28:32.152Z,2.58
2023-01-22T04:31:00.089Z,4.15
2023-01-22T04:33:26.825Z,5.05
2023-01-22T04:35:55.015Z,4.90
2023-01-22T04:38:21.807Z,5.80
2023-01-22T04:40:48.467Z,7.43
2023-01-22T04:43:15.258Z,3.58
2023-01-22T04:45:42.096Z,3.80
2023-01-22T04:48:09.291Z,2.80
2023-01-22T04:50:36.045Z,4.70
2023-01-22T04:53:02.659Z,3.88
2023-01-22T04:55:30.186Z,2.65
2023-01-22T04:58:01.541Z,3.40
2023-01-22T05:00:29.822Z,4.05
2023-01-22T05:03:01.728Z,5.53
2023-01-22T05:05:29.577Z,5.75
2023-01-22T05:07:56.605Z,3.90
2023-01-22T05:10:23.572Z,4.60
2023-01-22T05:12:50.287Z,4.97
2023-01-22T05:15:24.000Z,3.67
2023-01-22T05:17:51.054Z,5.60
2023-01-22T05:20:18.249Z,3.58
2023-01-22T05:22:45.222Z,7.55
2023-01-22T05:25:12.504Z,3.85
2023-01-22T05:27:39.062Z,4.90
2023-01-22T05:30:06.751Z,3.90
2023-01-22T05:32:33.513Z,6.47
2023-01-22T05:35:00.220Z,7.10
2023-01-22T05:37:26.944Z,8.65
2023-01-22T05:39:53.655Z,10.00
2023-01-22T05:42:21.133Z,12.38
2023-01-22T05:44:48.295Z,13.48
2023-01-22T05:47:15.557Z,12.13
2023-01-22T05:49:42.409Z,17.73
2023-01-22T05:52:12.098Z,21.05
2023-01-22T05:54:39.933Z,19.23
2023-01-22T05:57:07.285Z,17.08
2023-01-22T05:59:34.020Z,18.80
2023-01-22T06:02:01.015Z,14.57
2023-01-22T06:04:27.734Z,14.95
2023-01-22T06:06:54.414Z,18.52
2023-01-22T06:09:21.322Z,22.95
2023-01-22T06:11:48.323Z,20.20
2023-01-22T06:14:14.981Z,24.45
2023-01-22T06:16:41.724Z,23.77
2023-01-22T06:19:08.961Z,25.58
2023-01-22T06:21:35.634Z,23.75
2023-01-22T06:24:02.401Z,22.02
2023-01-22T06:26:28.955Z,24.35
2023-01-22T06:28:55.628Z,23.08
2023-01-22T06:31:22.393Z,27.92
2023-01-22T06:33:49.365Z,26.38
2023-01-22T06:36:15.984Z,24.20
2023-01-22T06:38:42.773Z,22.08
2023-01-22T06:41:09.870Z,17.30
2023-01-22T06:43:38.092Z,19.90
2023-01-22T06:46:05.575Z,21.95
2023-01-22T06:48:32.358Z,21.35
2023-01-22T06:51:00.722Z,19.60
2023-01-22T06:53:29.211Z,17.95
2023-01-22T06:55:59.428Z,19.48
2023-01-22T06:58:26.124Z,19.52
2023-01-22T07:00:52.787Z,19.95
2023-01-22T07:03:19.878Z,18.90
2023-01-22T07:05:46.583Z,17.98
2023-01-22T07:08:16.477Z,20.02
2023-01-22T07:10:43.600Z,19.52
2023-01-22T07:13:10.427Z,21.52
2023-01-22T07:15:37.396Z,19.38
2023-01-22T07:18:04.260Z,19.73
2023-01-22T07:20:31.145Z,20.85
2023-01-22T07:23:00.301Z,19.73
2023-01-22T07:25:27.951Z,22.38
2023-01-22T07:28:05.304Z,18.58
2023-01-22T07:30:32.054Z,19.55
2023-01-22T07:33:03.119Z,19.08
2023-01-22T07:35:30.559Z,15.68
2023-01-22T07:37:58.874Z,15.85
2023-01-22T07:40:26.159Z,11.95
2023-01-22T07:42:53.463Z,11.90
2023-01-22T07:45:20.747Z,12.48
2023-01-22T07:47:59.047Z,11.52
2023-01-22T07:50:28.129Z,13.15
2023-01-22T07:52:54.963Z,12.40
2023-01-22T07:55:22.250Z,17.15
2023-01-22T07:57:49.187Z,10.90
2023-01-22T08:00:16.716Z,15.00
2023-01-22T08:02:43.593Z,15.45
2023-01-22T08:05:14.463Z,15.77
2023-01-22T08:07:41.043Z,18.55
2023-01-22T08:10:08.985Z,18.17
2023-01-22T08:12:38.479Z,18.90
2023-01-22T08:15:05.549Z,18.73
2023-01-22T08:17:32.092Z,13.90
2023-01-22T08:19:58.832Z,19.63
2023-01-22T08:22:25.664Z,18.73
2023-01-22T08:24:54.162Z,16.92
2023-01-22T08:27:21.834Z,19.67
2023-01-22T08:29:50.063Z,18.92
2023-01-22T08:32:18.709Z,21.58
2023-01-22T08:34:45.488Z,24.73
2023-01-22T08:37:12.189Z,25.10
2023-01-22T08:39:39.080Z,24.05
2023-01-22T08:42:05.814Z,28.02
2023-01-22T08:44:32.386Z,28.77
2023-01-22T08:46:59.187Z,30.83
2023-01-22T08:49:26.425Z,29.88
2023-01-22T08:51:53.707Z,28.13
2023-01-22T08:54:20.432Z,29.60
2023-01-22T08:56:48.111Z,28.67
2023-01-22T08:59:15.813Z,27.17
2023-01-22T09:01:42.486Z,31.77
2023-01-22T09:04:10.430Z,27.20
2023-01-22T09:06:38.582Z,25.98
2023-01-22T09:09:06.491Z,28.25
2023-01-22T09:11:33.701Z,29.92
2023-01-22T09:14:00.654Z,25.75
2023-01-22T09:16:28.420Z,25.20
2023-01-22T09:18:55.258Z,27.65
2023-01-22T09:21:21.959Z,27.38
2023-01-22T09:23:48.644Z,25.48
2023-01-22T09:26:15.305Z,24.55
2023-01-22T09:28:42.236Z,25.80
2023-01-22T09:31:12.609Z,23.90
2023-01-22T09:33:39.669Z,25.95
2023-01-22T09:36:08.528Z,28.05
2023-01-22T09:38:35.158Z,27.38
2023-01-22T09:41:07.032Z,28.13
2023-01-22T09:43:53.784Z,25.48
2023-01-22T09:46:49.903Z,24.67
2023-01-22T09:49:18.335Z,24.95
2023-01-22T09:51:54.415Z,22.05
2023-01-22T09:54:21.525Z,26.13
2023-01-22T09:56:51.127Z,26.25
2023-01-22T09:59:32.638Z,30.60
2023-01-22T10:02:12.571Z,27.75
2023-01-22T10:04:46.533Z,23.83
2023-01-22T10:07:23.917Z,29.17
2023-01-22T10:09:58.936Z,26.20
2023-01-22T10:12:29.283Z,28.08
2023-01-22T10:14:56.547Z,29.90
2023-01-22T10:17:29.949Z,28.67
2023-01-22T10:20:03.927Z,29.52
2023-01-22T10:22:30.667Z,22.45
2023-01-22T10:24:58.659Z,10.55
2023-01-22T10:27:41.410Z,11.32
2023-01-22T10:30:20.536Z,13.02
2023-01-22T10:33:07.155Z,11.20
2023-01-22T10:35:44.075Z,13.50
2023-01-22T10:38:33.411Z,12.57
2023-01-22T10:41:03.094Z,12.23
2023-01-22T10:43:35.699Z,8.93
2023-01-22T10:46:16.305Z,6.60
2023-01-22T10:48:43.103Z,8.00
2023-01-22T10:51:14.885Z,8.35
2023-01-22T10:53:47.996Z,7.03
2023-01-22T10:56:32.454Z,4.88
2023-01-22T10:59:02.369Z,5.40
2023-01-22T11:01:39.588Z,2.45
2023-01-22T11:04:20.722Z,5.75
2023-01-22T11:06:51.203Z,5.47
2023-01-22T11:09:24.486Z,2.67
2023-01-22T11:12:00.248Z,1.20
2023-01-22T11:14:33.898Z,2.40
2023-01-22T11:17:12.334Z,3.95
2023-01-22T11:19:46.099Z,3.72
2023-01-22T11:22:25.696Z,2.65
2023-01-22T11:24:52.642Z,0.70
2023-01-22T11:27:34.375Z,0.50
2023-01-22T11:30:26.081Z,1.15
2023-01-22T11:33:17.094Z,0.40
2023-01-22T11:36:09.501Z,2.15
2023-01-22T11:38:55.153Z,4.25
2023-01-22T11:41:59.486Z,6.18
2023-01-22T11:44:50.190Z,3.45
2023-01-22T11:47:28.884Z,5.72
2023-01-22T11:50:27.300Z,5.32
2023-01-22T11:53:26.040Z,3.70
2023-01-22T11:56:10.540Z,4.53
2023-01-22T11:58:52.469Z,4.05
2023-01-22T12:01:35.587Z,2.80
2023-01-22T12:04:28.618Z,3.38
2023-01-22T12:07:51.533Z,3.90
2023-01-22T12:10:54.161Z,2.63
2023-01-22T12:13:46.131Z,0.77
2023-01-22T12:16:36.409Z,1.45
2023-01-22T12:19:41.943Z,0.85
2023-01-22T12:22:35.705Z,1.83
2023-01-22T12:25:19.634Z,0.75
2023-01-22T12:28:02.725Z,0.70
2023-01-22T12:30:45.219Z,0.98
2023-01-22T12:33:14.801Z,1.15
2023-01-22T12:36:00.530Z,1.30
2023-01-22T12:38:55.589Z,0.43
2023-01-22T12:41:53.978Z,0.50
2023-01-22T12:44:35.767Z,0.93
2023-01-22T12:47:13.432Z,0.40
2023-01-22T12:49:51.904Z,1.15
2023-01-22T12:52:27.762Z,2.35
2023-01-22T12:54:55.359Z,0.32
2023-01-22T12:57:21.959Z,0.52
2023-01-22T12:59:57.099Z,0.40
2023-01-22T13:02:26.827Z,0.55
2023-01-22T13:04:54.572Z,0.40
2023-01-22T13:07:33.085Z,0.40
2023-01-22T13:10:21.511Z,0.40
2023-01-22T13:12:55.586Z,0.57
2023-01-22T13:15:26.848Z,0.40
2023-01-22T13:18:16.882Z,0.30
2023-01-22T13:20:55.449Z,0.40
2023-01-22T13:23:22.463Z,0.80
2023-01-22T13:25:56.830Z,0.30
2023-01-22T13:28:25.269Z,0.40
2023-01-22T13:31:02.513Z,0.30
2023-01-22T13:33:30.068Z,0.43
2023-01-22T13:35:58.021Z,0.68
2023-01-22T13:38:27.484Z,0.40
2023-01-22T13:41:08.140Z,1.48
2023-01-22T13:43:36.683Z,0.50
2023-01-22T13:46:04.479Z,0.30
2023-01-22T13:48:31.231Z,2.08
2023-01-22T13:51:05.372Z,1.25
2023-01-22T13:53:38.475Z,1.30
2023-01-22T13:56:06.514Z,0.40
2023-01-22T13:58:52.746Z,0.30
2023-01-22T14:01:31.417Z,1.48
2023-01-22T14:04:03.654Z,0.55
2023-01-22T14:06:31.015Z,0.43
2023-01-22T14:08:58.611Z,0.82
2023-01-22T14:11:25.376Z,0.40
2023-01-22T14:13:53.353Z,0.40
2023-01-22T14:16:20.135Z,2.85
2023-01-22T14:18:47.020Z,0.40
2023-01-22T14:21:14.064Z,1.48
2023-01-22T14:23:41.758Z,0.65
2023-01-22T14:26:09.317Z,0.57
2023-01-22T14:28:36.723Z,0.32
2023-01-22T14:31:04.258Z,0.30
2023-01-22T14:33:33.535Z,1.00
2023-01-22T14:36:00.797Z,0.10
2023-01-22T14:38:28.113Z,1.38
2023-01-22T14:40:55.253Z,0.40
2023-01-22T14:43:22.020Z,0.40
2023-01-22T14:45:48.923Z,0.50
2023-01-22T14:48:18.463Z,0.50
2023-01-22T14:50:45.925Z,2.00
2023-01-22T14:53:13.569Z,0.50
2023-01-22T14:55:42.881Z,0.63
2023-01-22T14:58:10.339Z,1.00
2023-01-22T15:00:37.566Z,1.10
2023-01-22T15:03:04.900Z,1.45
2023-01-22T15:05:32.842Z,1.08
2023-01-22T15:08:01.776Z,0.32
2023-01-22T15:10:28.670Z,1.10
2023-01-22T15:12:55.447Z,0.30
2023-01-22T15:15:26.479Z,0.30
2023-01-22T15:17:54.693Z,2.10
2023-01-22T15:20:22.484Z,0.30
2023-01-22T15:22:50.073Z,0.50
2023-01-22T15:25:17.663Z,1.23
2023-01-22T15:27:44.725Z,1.48
2023-01-22T15:30:13.602Z,0.70
2023-01-22T15:32:40.566Z,0.50
2023-01-22T15:35:07.407Z,0.63
2023-01-22T15:37:34.107Z,1.75
2023-01-22T15:40:00.899Z,0.50
2023-01-22T15:42:27.479Z,0.30
2023-01-22T15:44:54.171Z,2.85
2023-01-22T15:47:20.758Z,0.82
2023-01-22T15:49:47.429Z,0.47
2023-01-22T15:52:14.035Z,2.30
2023-01-22T15:54:40.581Z,0.57
2023-01-22T15:57:07.548Z,1.30
2023-01-22T15:59:34.261Z,2.45
2023-01-22T16:02:01.076Z,1.67
2023-01-22T16:04:28.154Z,1.25
2023-01-22T16:06:54.833Z,1.67
2023-01-22T16:09:21.555Z,0.65
2023-01-22T16:11:48.252Z,0.63
2023-01-22T16:14:15.033Z,3.22
2023-01-22T16:16:41.651Z,1.23
2023-01-22T16:19:15.820Z,0.80
2023-01-22T16:21:45.037Z,5.78
2023-01-22T16:24:11.785Z,1.05
2023-01-22T16:26:38.363Z,3.60
2023-01-22T16:29:06.278Z,1.65
2023-01-22T16:31:34.390Z,2.33
2023-01-22T16:34:11.505Z,3.42
2023-01-22T16:36:38.702Z,0.90
2023-01-22T16:39:06.310Z,1.52
2023-01-22T16:41:37.219Z,1.67
2023-01-22T16:44:08.599Z,2.20
2023-01-22T16:46:38.620Z,2.03
2023-01-22T16:49:08.390Z,2.55
2023-01-22T16:51:38.269Z,2.65
2023-01-22T16:54:06.148Z,2.90
2023-01-22T16:56:32.943Z,3.95
2023-01-22T16:59:00.358Z,1.33
2023-01-22T17:01:29.834Z,1.35
2023-01-22T17:03:56.554Z,1.27
2023-01-22T17:06:33.054Z,1.20
2023-01-22T17:09:00.427Z,2.75
2023-01-22T17:11:27.220Z,2.88
2023-01-22T17:13:54.506Z,3.58
2023-01-22T17:16:21.718Z,2.10
2023-01-22T17:18:49.231Z,2.35
2023-01-22T17:21:18.385Z,2.80
2023-01-22T17:23:45.512Z,3.38
2023-01-22T17:26:14.456Z,1.77
2023-01-22T17:28:41.177Z,2.70
2023-01-22T17:31:17.113Z,1.67
2023-01-22T17:33:44.398Z,2.88
2023-01-22T17:36:13.306Z,2.83
2023-01-22T17:38:40.251Z,1.80
2023-01-22T17:41:21.004Z,3.53
2023-01-22T17:43:51.115Z,2.63
2023-01-22T17:46:21.031Z,3.33
2023-01-22T17:48:49.226Z,2.92
2023-01-22T17:51:19.422Z,1.88
2023-01-22T17:53:47.991Z,2.00
2023-01-22T17:56:26.446Z,1.63
2023-01-22T17:58:55.791Z,2.35
2023-01-22T18:01:24.588Z,2.88
2023-01-22T18:03:51.881Z,4.13
2023-01-22T18:06:19.468Z,3.90
2023-01-22T18:08:46.195Z,5.30
2023-01-22T18:11:16.962Z,7.22
2023-01-22T18:13:44.174Z,7.63
2023-01-22T18:16:14.598Z,4.53
2023-01-22T18:18:42.547Z,5.20
2023-01-22T18:21:14.153Z,6.95
2023-01-22T18:23:40.975Z,5.28
2023-01-22T18:26:09.837Z,4.38
2023-01-22T18:28:37.036Z,6.10
2023-01-22T18:31:17.074Z,4.75
2023-01-22T18:33:46.121Z,5.28
2023-01-22T18:36:14.734Z,5.18
2023-01-22T18:38:42.206Z,5.95
2023-01-22T18:41:13.806Z,6.13
2023-01-22T18:43:41.242Z,7.43
2023-01-22T18:46:10.756Z,7.20
2023-01-22T18:48:39.468Z,6.85
2023-01-22T18:51:06.522Z,6.18
2023-01-22T18:53:35.950Z,6.28
2023-01-22T18:56:05.225Z,3.90
2023-01-22T18:58:35.403Z,5.90
2023-01-22T19:01:18.741Z,7.10
2023-01-22T19:03:48.207Z,4.85
2023-01-22T19:06:18.100Z,6.22
2023-01-22T19:08:54.850Z,4.13
2023-01-22T19:11:22.438Z,6.70
2023-01-22T19:13:53.442Z,4.30
2023-01-22T19:16:23.685Z,6.60
2023-01-22T19:18:57.670Z,7.57
2023-01-22T19:21:26.353Z,5.30
2023-01-22T19:23:56.782Z,6.95
2023-01-22T19:26:30.619Z,8.40
2023-01-22T19:29:00.805Z,4.25
2023-01-22T19:31:36.214Z,4.53
2023-01-22T19:34:05.180Z,5.68
2023-01-22T19:36:34.421Z,5.28
2023-01-22T19:39:04.513Z,3.67
2023-01-22T19:41:31.484Z,3.20
2023-01-22T19:44:00.559Z,5.85
2023-01-22T19:46:28.198Z,2.53
2023-01-22T19:48:55.265Z,3.00
2023-01-22T19:51:23.514Z,3.70
2023-01-22T19:53:50.256Z,3.58
2023-01-22T19:56:24.775Z,5.50
2023-01-22T19:58:54.169Z,4.43
2023-01-22T20:01:21.952Z,4.47
2023-01-22T20:03:49.116Z,3.95
2023-01-22T20:06:18.115Z,2.53
2023-01-22T20:08:45.990Z,2.40
2023-01-22T20:11:13.956Z,3.88
2023-01-22T20:13:42.034Z,3.85
2023-01-22T20:16:16.940Z,3.72
2023-01-22T20:18:43.698Z,4.25
2023-01-22T20:21:10.410Z,6.47
2023-01-22T20:23:36.944Z,6.00
2023-01-22T20:26:07.818Z,3.65
2023-01-22T20:28:35.020Z,3.78
2023-01-22T20:31:04.287Z,2.22
2023-01-22T20:33:31.994Z,3.58
2023-01-22T20:36:01.057Z,7.57
2023-01-22T20:38:28.378Z,3.67
2023-01-22T20:40:58.479Z,3.05
2023-01-22T20:43:25.261Z,4.07
2023-01-22T20:46:00.621Z,4.60
2023-01-22T20:48:29.737Z,8.10
2023-01-22T20:50:56.869Z,5.35
2023-01-22T20:53:24.597Z,5.30
2023-01-22T20:56:03.124Z,5.97
2023-01-22T20:58:30.555Z,6.05
2023-01-22T21:01:05.200Z,9.27
2023-01-22T21:03:32.588Z,5.55
2023-01-22T21:06:07.816Z,6.53
2023-01-22T21:08:35.110Z,4.95
2023-01-22T21:11:05.155Z,4.78
2023-01-22T21:13:31.919Z,6.20
2023-01-22T21:16:13.358Z,3.97
2023-01-22T21:18:43.644Z,5.00
2023-01-22T21:21:17.945Z,2.53
2023-01-22T21:23:47.448Z,4.90
2023-01-22T21:26:16.438Z,3.92
2023-01-22T21:28:43.009Z,3.78
2023-01-22T21:31:14.661Z,3.38
2023-01-22T21:33:42.415Z,2.25
2023-01-22T21:36:10.623Z,2.90
2023-01-22T21:38:38.080Z,3.13
2023-01-22T21:41:10.246Z,3.08
2023-01-22T21:43:55.314Z,2.95
2023-01-22T21:46:22.022Z,5.80
2023-01-22T21:48:49.479Z,3.58
2023-01-22T21:51:16.249Z,4.63
2023-01-22T21:53:45.079Z,3.33
2023-01-22T21:56:11.727Z,4.57
2023-01-22T21:58:42.370Z,5.05
2023-01-22T22:01:09.389Z,4.53
2023-01-22T22:03:36.282Z,3.20
2023-01-22T22:06:02.861Z,3.90
2023-01-22T22:08:29.833Z,6.97
2023-01-22T22:10:57.675Z,4.53
2023-01-22T22:13:24.402Z,3.47
2023-01-22T22:15:51.230Z,3.47
2023-01-22T22:18:17.863Z,3.05
2023-01-22T22:20:44.492Z,2.92
2023-01-22T22:23:11.083Z,4.30
2023-01-22T22:25:37.635Z,2.47
2023-01-22T22:28:04.587Z,1.35
2023-01-22T22:30:31.372Z,3.03
2023-01-22T22:32:58.934Z,2.63
2023-01-22T22:35:25.615Z,3.60
2023-01-22T22:37:52.326Z,4.20
2023-01-22T22:40:19.370Z,3.30
2023-01-22T22:42:46.267Z,4.90
2023-01-22T22:45:12.908Z,3.05
2023-01-22T22:47:39.525Z,2.72
2023-01-22T22:50:07.376Z,5.57
2023-01-22T22:52:34.770Z,3.58
2023-01-22T22:55:01.861Z,2.63
2023-01-22T22:57:28.726Z,5.25
2023-01-22T22:59:55.443Z,4.35
2023-01-22T23:02:22.069Z,1.80
2023-01-22T23:04:48.874Z,3.38
2023-01-22T23:07:15.652Z,3.30
2023-01-22T23:09:42.249Z,3.22
2023-01-22T23:12:08.826Z,2.50
2023-01-22T23:14:35.451Z,5.32
2023-01-22T23:17:02.512Z,4.68
2023-01-22T23:19:29.104Z,3.35
2023-01-22T23:21:58.273Z,4.53
2023-01-22T23:24:25.842Z,4.20
2023-01-22T23:26:52.669Z,3.25
2023-01-22T23:29:22.223Z,2.05
2023-01-22T23:31:49.164Z,2.10
2023-01-22T23:34:18.751Z,1.83
2023-01-22T23:36:46.541Z,2.70
2023-01-22T23:39:15.282Z,2.60
2023-01-22T23:41:42.490Z,1.90
2023-01-22T23:44:09.543Z,2.70
2023-01-22T23:46:36.619Z,4.57
2023-01-22T23:49:04.627Z,1.90
2023-01-22T23:51:31.529Z,1.92
2023-01-22T23:53:58.408Z,3.78
2023-01-22T23:56:30.187Z,2.13
2023-01-22T23:58:57.288Z,4.03
